Ergebnisliste vom: 18.06.2014 - Brockwitzer Jubilńumslauf2014 - 9 km

weitere Ergebnisse >>

Platz Plm Plw Stnr. Name,Vorname Verein GJ AK AKm AKw Endzeit RŘckst.
1 1   264 Lehmann, Peter SV Elbland Coswig-Mei├čen 95 mU20 1   0:32:32 0:00:00
2 2   230 G├Âhler, Niels SV Elbland Coswig-Mei├čen 76 M35 1   0:35:14 0:02:42
3 3   305 Thieme, Holger SC Riesa 72 M40 1   0:35:38 0:03:06
4 4   371 Lindig, Thomas SV Elbland Coswig-Mei├čen 70 M40 2   0:36:24 0:03:52
5 5   298 Schwarzer, Roland Katzengebirgsl├Ąufer 85 M20 1   0:37:01 0:04:29
6 6   349 Sch├╝tzka, Georg LG TuS Weinb├Âhla 86 M20 2   0:37:23 0:04:51
7 7   261 Kretzschmar, Achim Holzhandel Ganzig 67 M45 1   0:37:28 0:04:56
8 8   299 Sittner, Falk Lauff├Ârdergruppe Gruna 81 M30 1   0:37:55 0:05:23
9 9   318 Wittwer, Frank VS Dresden 68 M45 2   0:38:30 0:05:58
10 10   237 Hain, Hagen Coswig 74 M40 3   0:38:45 0:06:13
11 11   228 Gast, Toni SV Stauchitz 47 76 M35 2   0:38:51 0:06:19
12 12   303 Struck, Sven Dresden 69 M45 3   0:38:59 0:06:27
13 13   459 Gierth, Steffen Team Erdinger Alkoholfreu 72 M40 4   0:40:02 0:07:30
14 14   306 Umlauf, Steffen SV Hellerau 61 M50 1   0:40:04 0:07:32
15 15   252 Kaubisch, Nico Team Erdinger Alkoholfrei Hirschfeld 97 mU18 1   0:40:06 0:07:34
16 16   462 B├Âhme, Kai LG Priestewitz 70 M40 5   0:40:07 0:07:35
17 17   390 Fleischer, Torsten Coswig 67 M45 4   0:40:17 0:07:45
18 18   313 Wetzel, Hendryk SV Robotron Dresden 69 M45 5   0:40:32 0:08:00
19 19   421 K├╝mmel, Stephan LG Priestewitz 66 M45 6   0:40:42 0:08:10
20 20   255 Kn├Âfel, Detlef Mei├čen 63 M50 2   0:40:46 0:08:14
21 21   240 H├Ąu├čler, Norman Gro├čenhainer RV 97 mU18 2   0:41:03 0:08:31
22 22   248 Jancker, Hans-Dieter SV Elbland Coswig-Mei├čen 52 M60 1   0:41:10 0:08:38
23 23   266 Loschke, Sandro Biketeam Oberlausitz 74 M40 6   0:41:11 0:08:39
24 24   403 P├Ąpscheck, Silvio Gro├čenhain 82 M30 2   0:41:25 0:08:53
25 25   478 Balzer, Frank SV Einheit Grimma 58 M55 1   0:41:33 0:09:01
26 26   424 Schliwa, Sebastian SV Elbland Coswig Mei├čen 83 M30 3   0:41:41 0:09:09
27 27   262 Kretzschmar, Felix Holzhandel Ganzig 96 mU20 2   0:42:15 0:09:43
28 28   413 Kuschmierz, Heiko FV Zabeltitz 70 M40 7   0:42:18 0:09:46
29 29   249 Jentzsch, Christian Diera-Zehren 96 mU20 3   0:42:25 0:09:53
30 30   400 Fischer, Gerd HSV Weinb├Âhla 67 M45 7   0:42:29 0:09:57
31 31   402 Pospisil, Joachim Laufgruppe Nossen 58 M55 2   0:42:39 0:10:07
32 32   497 Beyer, Steffen Radebeul 71 M40 8   0:42:45 0:10:13
33 33   280 Noack gen. Gr├Ąfe, Stefan LG TuS Weinb├Âhla 79 M35 3   0:42:49 0:10:17
34 34   289 R├Âsch, Carsten Mei├čen 69 M45 8   0:43:00 0:10:28
35 35   443 Baum, Rolf SV Elbland Coswig-Mei├čen 53 M60 2   0:43:01 0:10:29
36 36   226 Garbsch, Maik Moritzburg 90 M20 3   0:43:04 0:10:32
37 37   379 Otto, Andreas SV Elbland Coswig-Mei├čen 76 M35 4   0:43:30 0:10:58
38 38   508 Theile, Markus Belgern 78 M35 5   0:43:53 0:11:21
39 39   229 Gehre, Torsten Coswig 75 M35 6   0:43:56 0:11:24
40 40   263 Kuge, Jens Mei├čen 70 M40 9   0:44:01 0:11:29
41 41   324 Gothe, Stefan Coswig 77 M35 7   0:44:07 0:11:35
42 42   488 Thiele, Richard Radebeul 97 mU18 3   0:44:10 0:11:38
43   1 389 Golbs, Ulrike ESV Dresden 73 W40   1 0:44:12 0:11:40
44   2 301 Stich, Grit Radebeul 70 W40   2 0:44:16 0:11:44
45 43   251 Kaubisch, Frank Team Erdinger Alkoholfrei Hirschfeld 67 M45 9   0:44:17 0:11:45
46 44   227 Gast, Marcel Diera-Zehren 88 M20 4   0:44:22 0:11:50
47 45   449 Bittner, Andreas CVJM Coswig 71 M40 10   0:44:25 0:11:53
48 46   311 Weimann, Wolfgang Dresden 65 M45 10   0:44:28 0:11:56
49 47   482 Albinus, Frank Coswig 73 M40 11   0:44:29 0:11:57
50   3 486 Dewitz, Silke ESV Lok D├Âbeln 67 W45   1 0:44:30 0:11:58
51 48   231 G├Âtzelt, Jan SV Hellerau 71 M40 12   0:44:34 0:12:02
52 49   450 Schubert, Bernd Radebeul 58 M55 3   0:44:38 0:12:06
53 50   481 Rox, Andreas Ebersbach 59 M55 4   0:44:48 0:12:16
54 51   243 Heyer, Ulrich Chemnitz 53 M60 3   0:44:54 0:12:22
55 52   432 Schwitalla, Dietmar SC Riesa 56 M55 5   0:45:08 0:12:36
56 53   445 Laue, Steffen SV Chemie N├╝nchritz 74 M40 13   0:45:22 0:12:50
57 54   315 Winter, J├╝rgen LG TuS Weinb├Âhla 48 M65 1   0:45:27 0:12:55
58 55   499 Feder, Hartmut Mei├čen 60 M50 3   0:45:33 0:13:01
59 56   444 Brandt, Remo Laufgruppe Wacker N├╝nchritz 70 M40 14   0:45:41 0:13:09
60 57   472 Forberger, Erik D├Âbeln 79 M35 8   0:45:47 0:13:15
61 58   407 Richter, Frank Mei├čen 57 M55 6   0:45:56 0:13:24
62 59   485 Dewitz, Heiko ESV Lok D├Âbeln 64 M50 4   0:46:06 0:13:34
63 60   405 Ruhland, J├Ârg Team Sport Ruscher 68 M45 11   0:46:20 0:13:48
64 61   216 Born, Peter Frontrunner Dresden 51 M60 4   0:46:33 0:14:01
65 62   317 Wittmann, Jan Mei├čen 76 M35 9   0:46:41 0:14:09
66 63   504 B├Ąnsch, Rene Lommatzsch 80 M30 4   0:46:49 0:14:17
67 64   279 Nickel, Falko WSG Brockwitz 85 M20 5   0:46:57 0:14:25
68 65   293 Schmidt, Daniel Real Egal Radeburg 80 M30 5   0:47:10 0:14:38
69   4 420 K├╝mmel, Petra LG Priestewitz 65 W45   2 0:47:17 0:14:45
70 66   316 Wittmann, Danny Mei├čen 76 M35 10   0:47:30 0:14:58
71 67   290 R├╝hle, Frank Lichtensee 71 M40 15   0:47:35 0:15:03
72 68   296 Schneider, Christian Weinb├Âhla 53 M60 5   0:47:37 0:15:05
73 69   312 Werner, Enrico Coswig 79 M35 11   0:47:39 0:15:07
74 70   372 Fritzsche, Reinmar Coswig 67 M45 12   0:47:43 0:15:11
75   5 309 Wegner-Drichelt, Conni Mei├čen 74 W40   3 0:47:47 0:15:15
76 71   247 Illige, Uwe Riesa 65 M45 13   0:47:48 0:15:16
77 72   463 Jakat, Gerd Eestly Husky Race 63 M50 5   0:47:50 0:15:18
78 73   267 Lungwitz, Oliver Team Tempus 87 M20 6   0:47:55 0:15:23
79 74   274 Mierswa, Daniel BSG Planeta 73 M40 16   0:48:01 0:15:29
80 75   284 Petzold, Jens Coswig 86 M20 7   0:48:10 0:15:38
81 76   221 Eisemuth, Sandro SV Lampertswalde 81 M30 6   0:48:33 0:16:01
82 77   422 Zobelt, Dany GW Coswig 79 M35 12   0:48:53 0:16:21
83 78   276 M├╝ller, Peter Wehlen 62 M50 6   0:48:57 0:16:25
84   6 212 Becher, Ulrike Coswig 75 W35   1 0:49:02 0:16:30
85   7 236 H├Ąhne, Grit Elbland Reha Gro├čenhain 71 W40   4 0:49:05 0:16:33
86 79   218 Bransch, Ulli Nossen 84 M30 7   0:49:09 0:16:37
87   8 489 M├╝nch, Kristin SV Elbland Coswig-Mei├čen 84 W30   1 0:49:12 0:16:40
88 80   219 Brendel, Frank Sachsenlauf Coswig 59 M55 7   0:49:19 0:16:47
89 81   222 Esche, Thomas BSG Planeta 69 M45 14   0:49:22 0:16:50
90 82   474 Richter, Florian SV Motor Gro├čenhain 94 M20 8   0:49:23 0:16:51
91 83   430 Conrad, Rainer Oschatz/Thalheim 48 M65 2   0:49:34 0:17:02
92 84   286 Pietschmann, Lutz Die Schieritzer 61 M50 7   0:49:42 0:17:10
93   9 410 Zabel, Anne Freital 72 W40   5 0:49:47 0:17:15
94 85   460 Werner, Ralf   70 M40 17   0:49:48 0:17:16
95   10 507 Bormann, Sophie Glaubitz 84 W30   2 0:49:59 0:17:27
96 86   470 Kubitza, Uwe Weinb├Âhla 62 M50 8   0:50:19 0:17:47
97 87   435 Needell, Richard Coswig 98 mU18 4   0:50:23 0:17:51
98 88   307 Urban, Gerd running boys 65 M45 15   0:50:28 0:17:56
99   11 257 Kolibius, Katja Coswig 78 W35   2 0:50:39 0:18:07
100   12 321 Zomack, Nicole Team Erdinger Alkoholfrei 83 W30   3 0:50:43 0:18:11
101   13 505 Bobe, Anett Glash├╝tter Bergfreunde 68 W45   3 0:50:51 0:18:19
102 89   277 M├╝ller, Uwe Leisnig 70 M40 18   0:51:03 0:18:31
103 90   233 Greinke, Thomas Coswig 68 M45 16   0:51:05 0:18:33
104 91   397 Vogel, Dieter Laufgruppe Nossen 65 M45 17   0:51:12 0:18:40
105   14 239 H├Ąu├čler, Ines Gro├čenhain 68 W45   4 0:51:13 0:18:41
106   15 273 Mey, Susanne Coswig 87 W20   1 0:51:17 0:18:45
107   16 256 K├Âber, Anett Niederau 76 W35   3 0:51:19 0:18:47
108   17 455 Preu├čner, Kristina Lauffreunde N├╝ne 74 W40   6 0:51:20 0:18:48
109 92   258 K├Ârbs, Dirk Laufgruppe Nossen 65 M45 18   0:51:26 0:18:54
110 93   396 Hengst, Bernd Laufgruppe Nossen 45 M65 3   0:51:28 0:18:56
111   18 242 Heyer, Ina Chemnitz 80 W30   4 0:51:41 0:19:09
112 94   225 G├Ąbler, Andreas LRC Mittelsachsen 79 M35 13   0:51:42 0:19:10
112 94   278 Neumann, Uwe Stauchitz 67 M45 19   0:51:42 0:19:10
114 96   484 Hunger, Jens Sch├Ânfeld 70 M40 19   0:51:48 0:19:16
115 97   281 Noppes, Ralf SV Nordwind Naund├Ârfel 76 M35 14   0:51:55 0:19:23
116 98   388 List, Hans-Joachim Ruhland 49 M65 4   0:51:57 0:19:25
117 99   436 Needell, Dirk Coswig 71 M40 20   0:51:59 0:19:27
118 100   319 Wohs, Olaf Coswiger Kanu-Verein 68 M45 20   0:52:00 0:19:28
119 101   452 Brucksch, Tilo Peritz 71 M40 21   0:52:05 0:19:33
120 102   441 Hiller, Daniel Radebeul 75 M35 15   0:52:34 0:20:02
121 103   440 Herrmann, Alexander Radeb eul 72 M40 22   0:52:35 0:20:03
122 104   265 Loschke, Rico Dresden 76 M35 16   0:52:42 0:20:10
123   19 246 Hofmann, Katrin TSV Dresden 67 W45   5 0:53:03 0:20:31
124 105   314 Wick, Peter Weinb├Âhla 59 M55 8   0:53:31 0:20:59
125 106   294 Schmidt, Michael Coswiger Kanu-Verein 83 M30 8   0:54:04 0:21:32
126 107   431 Ho├čbach, Harald LSG Wermsdorf 46 M65 5   0:54:09 0:21:37
127 108   288 Ranft, Thomas Coswig 72 M40 23   0:54:12 0:21:40
128 109   292 Sch├Ąfer, Markus SV Lampertswalde 81 M30 9   0:55:07 0:22:35
129   20 253 Kauert, Josefine Dresden 88 W20   2 0:55:12 0:22:40
130 110   323 Klawun-Kendray, W. George Sachsen Marathon 42 M70 1   0:55:13 0:22:41
131   21 392 Peschel, Annett Dresden 67 W45   6 0:55:16 0:22:44
132 111   214 B├Âhme, Alessandro Mei├čen 86 M20 9   0:55:19 0:22:47
133 112   498 Slany, Bernd LandMaxx-Team 57 M55 9   0:55:49 0:23:17
134 113   254 Kauert, Reinhard Medingen 56 M55 10   0:55:52 0:23:20
135   22 513 Hammer, Ines Strehla 70 W40   7 0:55:55 0:23:23
136 114   213 Bieh, Andreas Team Erdinger Alkoholfrei 60 M50 9   0:56:00 0:23:28
137 115   495 Grimm, Frank Mei├čen 76 M35 17   0:56:02 0:23:30
138   23 310 Wehner, Cornelia Laufszene Sachsen 70 W40   8 0:56:28 0:23:56
139   24 394 Wilhelm, Katrin ATW Dresden 71 W40   9 0:56:29 0:23:57
140   25 285 Philipp-Wohs, Peggy Coswig 74 W40   10 0:56:46 0:24:14
141 116   415 Martick, Siegfried SC Riesa 47 M65 6   0:56:49 0:24:17
142 117   374 Kuke, Kewin Coswig 83 M30 10   0:57:01 0:24:29
143   26 373 R├╝lker, Stefanie Coswig 82 W30   5 0:57:02 0:24:30
144   27 287 Pietschmann, Rena Die Schieritzer 69 W45   7 0:57:06 0:24:34
145   28 241 Hesse, Karina Turboschnecke 80 W30   6 0:57:34 0:25:02
146 118   245 Hoffmann, Maik Weib├Âhla 86 M20 10   0:57:35 0:25:03
147   29 468 Notbckzu, Diana Leipzig 76 W35   4 0:57:37 0:25:05
148   30 454 Richter, Manuela LG Priestewitz 74 W40   11 0:58:04 0:25:32
149   31 503 M├╝nch, Christiane Ev. Schule Coswig 73 W40   12 0:58:30 0:25:58
150 119   215 B├Âhme, Mario Mei├čen 63 M50 10   0:58:31 0:25:59
151   32 268 Mai, Anne SV Elbland Coswig-Mei├čen 88 W20   3 0:58:57 0:26:25
152   33 297 Sch├╝tze, Kristin Brockwitz 88 W20   4 0:58:59 0:26:27
153 120   235 G├╝nzel, Jan Coswig 82 M30 11   0:59:01 0:26:29
154 121   320 Wuttke, Rick Glash├╝tte 91 M20 11   0:59:48 0:27:16
155 122   250 Jeschke, Falk Niederau 91 M20 12   0:59:49 0:27:17
156 123   282 Opatz, Eric Dippoldiswalde 92 M20 13   0:59:50 0:27:18
157 124   283 Paschke, Alf Weib├Âhla 60 M50 11   1:00:03 0:27:31
158   34 291 R├╝hle, Ivonne Lichtensee 71 W40   13 1:00:06 0:27:34
159   35 496 Grimm, Katharina Mei├čen 86 W20   5 1:00:11 0:27:39
160 125   502 Gro├čmann, Bert Weinb├Âhla 63 M50 12   1:00:56 0:28:24
161 126   327 Harz, Matthias SV Elbland Coswig Mei├čen 50 M60 6   1:01:07 0:28:35
162 127   447 Heinrich, Dietmar SV Elbland Coswig-Mei├čen 47 M65 7   1:01:25 0:28:53
163   36 295 Schmidt, Evi Weinb├Âhla 81 W30   7 1:02:57 0:30:25
164 128   304 Thiele, Ren├ę Radebeul 66 M45 21   1:03:28 0:30:56
165   37 469 Herzog, Maria Coswig 77 W35   5 1:03:39 0:31:07
166   38 500 Feder, Anja Scharfenberg 81 W30   8 1:07:01 0:34:29
167   39 223 Ferdinand, Claudia Mei├čen 87 W20   6 1:07:07 0:34:35
168   40 238 Harig, Birgit L├Âthain 72 W40   14 1:07:25 0:34:53
168   40 272 Metzner, Diana Moritzburg 67 W45   8 1:07:25 0:34:53
170   42 232 Greinke, Silke Coswig 68 W45   9 1:08:12 0:35:40
171   43 416 Wei├č, Rita Saunatruppe Mei├čen 69 W45   10 1:08:39 0:36:07
172   44 411 Schulze, Andrea Coswig 68 W45   11 1:08:54 0:36:22
173 129   476 Ellenberger, Ralf Radebeul 59 M55 11   1:09:52 0:37:20
173   45 479 Wensel, Antje Radebeul 83 W30   9 1:09:52 0:37:20
(c) 1990-2020 Blue Wonder Sport Promotion - Andreas Burow - Zeitnahme & Auswertung - www.Triathlon-Service.de